createdAt,value
2019-03-17T00:02:13.831Z,99.90
2019-03-17T00:04:47.125Z,99.90
2019-03-17T00:07:23.561Z,99.90
2019-03-17T00:09:56.932Z,99.90
2019-03-17T00:12:31.451Z,99.90
2019-03-17T00:15:06.552Z,99.90
2019-03-17T00:17:41.823Z,99.90
2019-03-17T00:20:14.959Z,99.90
2019-03-17T00:22:48.378Z,99.90
2019-03-17T00:28:13.264Z,99.90
2019-03-17T00:30:46.546Z,99.90
2019-03-17T00:33:19.835Z,99.90
2019-03-17T00:35:53.115Z,99.90
2019-03-17T00:38:26.396Z,99.90
2019-03-17T00:41:21.860Z,99.90
2019-03-17T00:43:55.204Z,99.90
2019-03-17T00:46:28.570Z,99.90
2019-03-17T00:49:02.876Z,99.90
2019-03-17T00:51:36.282Z,99.90
2019-03-17T00:54:09.571Z,99.90
2019-03-17T00:56:42.826Z,99.90
2019-03-17T00:59:16.239Z,99.90
2019-03-17T01:01:49.642Z,99.90
2019-03-17T01:04:23.867Z,99.90
2019-03-17T01:06:57.199Z,99.90
2019-03-17T01:09:30.685Z,99.90
2019-03-17T01:12:04.323Z,99.90
2019-03-17T01:14:37.727Z,99.90
2019-03-17T01:17:10.984Z,99.90
2019-03-17T01:19:44.265Z,99.90
2019-03-17T01:22:17.573Z,99.90
2019-03-17T01:24:50.822Z,99.90
2019-03-17T01:27:24.070Z,99.90
2019-03-17T01:29:57.682Z,99.90
2019-03-17T01:32:30.913Z,99.90
2019-03-17T01:35:09.502Z,99.90
2019-03-17T01:37:42.265Z,99.90
2019-03-17T01:40:16.553Z,99.90
2019-03-17T01:42:49.947Z,99.90
2019-03-17T01:45:24.495Z,99.90
2019-03-17T01:47:57.901Z,99.90
2019-03-17T01:50:31.346Z,99.90
2019-03-17T01:53:04.633Z,99.90
2019-03-17T01:55:37.938Z,99.90
2019-03-17T01:58:11.269Z,99.90
2019-03-17T02:00:45.092Z,99.90
2019-03-17T02:03:18.373Z,99.90
2019-03-17T02:05:51.717Z,99.90
2019-03-17T02:08:25.017Z,99.90
2019-03-17T02:10:58.372Z,99.90
2019-03-17T02:13:31.716Z,99.90
2019-03-17T02:16:05.036Z,99.90
2019-03-17T02:18:38.294Z,99.90
2019-03-17T03:33:28.788Z,99.90
2019-03-17T03:36:10.850Z,99.90
2019-03-17T03:38:37.065Z,99.90
2019-03-17T03:41:10.407Z,99.90
2019-03-17T03:43:43.693Z,99.90
2019-03-17T03:46:17.048Z,99.90
2019-03-17T03:48:50.445Z,99.90
2019-03-17T03:51:24.985Z,99.90
2019-03-17T03:53:58.345Z,99.90
2019-03-17T03:56:32.603Z,99.90
2019-03-17T03:59:05.951Z,99.90
2019-03-17T04:01:39.194Z,99.90
2019-03-17T04:04:13.437Z,99.90
2019-03-17T04:06:46.679Z,99.90
2019-03-17T04:09:20.009Z,99.90
2019-03-17T04:11:53.343Z,99.90
2019-03-17T04:14:26.645Z,99.90
2019-03-17T04:16:59.889Z,99.90
2019-03-17T04:19:33.203Z,99.90
2019-03-17T04:22:06.551Z,99.90
2019-03-17T04:24:40.054Z,99.90
2019-03-17T04:27:13.417Z,99.90
2019-03-17T04:29:46.696Z,99.90
2019-03-17T04:32:20.047Z,99.90
2019-03-17T04:34:53.488Z,99.90
2019-03-17T04:37:26.676Z,99.90
2019-03-17T04:40:00.613Z,99.90
2019-03-17T04:42:33.973Z,99.90
2019-03-17T04:45:08.665Z,99.90
2019-03-17T04:47:42.025Z,99.90
2019-03-17T04:50:15.470Z,99.90
2019-03-17T04:52:50.016Z,99.90
2019-03-17T04:55:23.302Z,99.90
2019-03-17T04:57:56.620Z,99.90
2019-03-17T05:22:25.244Z,99.90
2019-03-17T05:24:58.611Z,99.90
2019-03-17T05:27:31.902Z,99.90
2019-03-17T05:30:07.961Z,99.90
2019-03-17T05:32:41.256Z,99.90
2019-03-17T05:35:14.533Z,99.90
2019-03-17T05:37:48.612Z,99.90
2019-03-17T05:40:21.860Z,99.90
2019-03-17T05:46:20.962Z,99.90
2019-03-17T05:48:54.353Z,99.90
2019-03-17T05:51:29.122Z,99.90
2019-03-17T05:54:02.404Z,99.90
2019-03-17T05:56:42.319Z,99.90
2019-03-17T05:59:11.811Z,99.90
2019-03-17T06:01:45.011Z,99.90
2019-03-17T06:04:18.321Z,99.90
2019-03-17T06:06:51.551Z,99.90
2019-03-17T06:09:26.735Z,99.90
2019-03-17T06:12:07.721Z,99.90
2019-03-17T06:14:41.005Z,99.90
2019-03-17T06:17:14.273Z,99.90
2019-03-17T06:19:49.025Z,99.90
2019-03-17T06:22:22.376Z,99.90
2019-03-17T06:24:55.671Z,99.90
2019-03-17T06:27:33.941Z,99.90
2019-03-17T06:30:13.839Z,99.90
2019-03-17T06:32:48.022Z,99.90
2019-03-17T06:35:21.465Z,99.90
2019-03-17T06:44:44.761Z,99.90
2019-03-17T06:47:18.162Z,99.90
2019-03-17T06:49:53.285Z,99.90
2019-03-17T06:55:36.381Z,99.90
2019-03-17T06:58:15.343Z,99.90
2019-03-17T07:00:47.092Z,99.90
2019-03-17T07:03:21.532Z,99.90
2019-03-17T07:19:31.338Z,99.90
2019-03-17T07:22:04.695Z,99.90
2019-03-17T07:24:43.303Z,99.90
2019-03-17T07:27:18.264Z,99.90
2019-03-17T07:29:51.618Z,99.90
2019-03-17T07:36:02.387Z,99.90
2019-03-17T07:38:35.731Z,99.90
2019-03-17T07:41:09.064Z,99.90
2019-03-17T07:43:42.423Z,99.90
2019-03-17T07:46:16.657Z,99.90
2019-03-17T07:48:50.715Z,99.90
2019-03-17T07:51:24.074Z,99.90
2019-03-17T07:53:57.422Z,99.90
2019-03-17T07:59:21.131Z,99.90
2019-03-17T08:01:57.232Z,99.90
2019-03-17T08:04:41.962Z,99.90
2019-03-17T08:07:06.983Z,99.90
2019-03-17T08:09:51.153Z,99.90
2019-03-17T08:12:24.476Z,99.90
2019-03-17T08:14:58.006Z,99.90
2019-03-17T08:17:31.284Z,99.90
2019-03-17T08:20:04.976Z,99.90
2019-03-17T08:22:38.375Z,99.90
2019-03-17T08:25:13.844Z,99.90
2019-03-17T08:27:47.151Z,99.90
2019-03-17T08:30:20.522Z,99.90
2019-03-17T08:32:53.871Z,99.90
2019-03-17T08:35:27.126Z,99.90
2019-03-17T08:38:00.415Z,99.90
2019-03-17T08:40:33.705Z,99.90
2019-03-17T08:43:06.945Z,99.90
2019-03-17T08:45:45.873Z,99.90
2019-03-17T08:48:19.271Z,99.90
2019-03-17T08:50:52.564Z,99.90
2019-03-17T08:53:25.912Z,99.90
2019-03-17T08:55:59.214Z,99.90
2019-03-17T08:58:32.521Z,99.90
2019-03-17T09:01:09.853Z,99.90
2019-03-17T09:03:43.290Z,99.90
2019-03-17T09:06:16.664Z,99.90
2019-03-17T09:08:51.671Z,99.90
2019-03-17T09:11:25.076Z,99.90
2019-03-17T09:13:59.296Z,99.90
2019-03-17T09:16:32.543Z,99.90
2019-03-17T09:19:12.303Z,99.90
2019-03-17T09:21:41.013Z,99.90
2019-03-17T09:24:17.383Z,99.90
2019-03-17T09:26:49.411Z,99.90
2019-03-17T09:29:22.717Z,99.90
2019-03-17T09:31:56.163Z,99.90
2019-03-17T09:34:29.574Z,99.70
2019-03-17T09:37:02.935Z,99.70
2019-03-17T09:39:37.334Z,99.90
2019-03-17T09:42:11.220Z,99.10
2019-03-17T09:44:44.686Z,99.10
2019-03-17T09:47:17.948Z,99.40
2019-03-17T09:49:51.345Z,98.40
2019-03-17T09:52:25.211Z,98.00
2019-03-17T09:55:01.375Z,97.20
2019-03-17T09:57:34.631Z,96.90
2019-03-17T10:00:18.225Z,96.20
2019-03-17T10:02:52.748Z,96.20
2019-03-17T10:05:27.724Z,96.60
2019-03-17T10:08:01.125Z,96.20
2019-03-17T10:10:34.540Z,96.20
2019-03-17T10:13:08.055Z,95.80
2019-03-17T10:15:41.455Z,95.30
2019-03-17T10:18:14.819Z,95.40
2019-03-17T10:20:48.239Z,95.40
2019-03-17T10:23:23.221Z,95.90
2019-03-17T10:25:57.855Z,94.80
2019-03-17T10:28:34.892Z,94.60
2019-03-17T10:31:06.855Z,95.50
2019-03-17T10:33:40.133Z,94.70
2019-03-17T10:36:13.416Z,93.90
2019-03-17T10:38:46.912Z,93.80
2019-03-17T10:41:21.740Z,93.60
2019-03-17T10:43:55.104Z,93.00
2019-03-17T10:46:28.482Z,92.80
2019-03-17T10:49:03.457Z,93.40
2019-03-17T10:51:36.885Z,92.90
2019-03-17T10:54:14.788Z,92.90
2019-03-17T10:56:48.080Z,92.00
2019-03-17T10:59:23.437Z,91.00
2019-03-17T11:01:56.793Z,90.90
2019-03-17T11:04:30.083Z,91.30
2019-03-17T11:07:04.480Z,89.60
2019-03-17T11:09:37.835Z,90.10
2019-03-17T11:12:11.091Z,90.00
2019-03-17T11:14:44.416Z,90.60
2019-03-17T11:17:17.686Z,86.90
2019-03-17T11:19:51.009Z,84.20
2019-03-17T11:22:24.308Z,83.70
2019-03-17T11:24:57.653Z,81.50
2019-03-17T11:27:31.083Z,81.70
2019-03-17T11:30:15.225Z,82.30
2019-03-17T11:32:48.557Z,83.40
2019-03-17T11:35:21.833Z,82.70
2019-03-17T11:37:55.155Z,80.60
2019-03-17T11:40:30.620Z,79.70
2019-03-17T11:43:11.962Z,78.60
2019-03-17T11:45:39.857Z,76.00
2019-03-17T11:48:21.236Z,73.50
2019-03-17T11:50:57.222Z,72.30
2019-03-17T11:56:15.263Z,72.20
2019-03-17T12:01:52.200Z,66.00
2019-03-17T12:04:26.791Z,67.90
2019-03-17T12:07:00.131Z,67.40
2019-03-17T12:09:33.525Z,66.40
2019-03-17T12:12:08.652Z,67.10
2019-03-17T12:14:46.013Z,63.40
2019-03-17T12:17:19.262Z,63.40
2019-03-17T12:19:52.654Z,62.20
2019-03-17T12:22:25.974Z,59.90
2019-03-17T12:24:59.361Z,58.90
2019-03-17T12:27:32.646Z,53.80
2019-03-17T12:30:15.563Z,54.20
2019-03-17T12:32:49.626Z,52.70
2019-03-17T12:35:23.092Z,54.40
2019-03-17T12:37:56.436Z,52.60
2019-03-17T12:40:30.986Z,52.30
2019-03-17T12:43:04.294Z,53.60
2019-03-17T12:45:37.574Z,56.20
2019-03-17T12:48:10.999Z,55.20
2019-03-17T12:50:44.388Z,54.20
2019-03-17T12:53:17.692Z,54.30
2019-03-17T12:55:50.978Z,55.90
2019-03-17T12:58:24.285Z,50.80
2019-03-17T13:00:57.689Z,51.30
2019-03-17T13:03:31.005Z,49.60
2019-03-17T13:06:04.691Z,47.30
2019-03-17T13:08:38.012Z,50.20
2019-03-17T13:11:11.325Z,46.20
2019-03-17T13:13:47.139Z,49.00
2019-03-17T13:16:21.116Z,49.90
2019-03-17T13:18:54.432Z,45.50
2019-03-17T13:21:27.853Z,46.40
2019-03-17T13:24:01.105Z,48.90
2019-03-17T13:26:34.556Z,43.00
2019-03-17T13:29:07.911Z,45.00
2019-03-17T13:31:41.178Z,42.00
2019-03-17T13:34:14.561Z,40.50
2019-03-17T13:36:47.964Z,40.90
2019-03-17T13:39:21.334Z,40.70
2019-03-17T13:41:54.709Z,36.80
2019-03-17T13:44:27.991Z,38.20
2019-03-17T13:47:01.407Z,38.20
2019-03-17T13:49:34.633Z,38.80
2019-03-17T13:52:09.245Z,38.50
2019-03-17T13:54:43.482Z,37.40
2019-03-17T13:57:16.706Z,38.20
2019-03-17T13:59:51.658Z,37.30
2019-03-17T14:02:25.064Z,40.40
2019-03-17T14:04:58.355Z,38.10
2019-03-17T14:07:33.271Z,38.30
2019-03-17T14:10:13.967Z,36.40
2019-03-17T14:12:47.465Z,39.00
2019-03-17T14:15:20.842Z,41.10
2019-03-17T14:17:54.115Z,38.90
2019-03-17T14:20:27.394Z,41.90
2019-03-17T14:23:00.641Z,41.90
2019-03-17T14:25:37.249Z,42.30
2019-03-17T14:28:10.502Z,44.50
2019-03-17T14:30:43.787Z,44.40
2019-03-17T14:33:17.165Z,45.50
2019-03-17T14:35:50.483Z,45.50
2019-03-17T14:38:23.851Z,46.90
2019-03-17T14:40:57.434Z,45.90
2019-03-17T14:43:30.868Z,45.20
2019-03-17T14:46:04.192Z,46.50
2019-03-17T14:48:37.433Z,45.90
2019-03-17T14:51:12.184Z,43.10
2019-03-17T14:53:45.511Z,44.40
2019-03-17T14:56:18.747Z,43.20
2019-03-17T14:58:52.094Z,44.20
2019-03-17T15:01:25.344Z,42.60
2019-03-17T15:04:01.422Z,41.20
2019-03-17T15:06:34.793Z,45.10
2019-03-17T15:09:08.849Z,48.20
2019-03-17T15:11:44.411Z,44.10
2019-03-17T15:14:17.722Z,40.10
2019-03-17T15:16:51.131Z,38.90
2019-03-17T15:19:27.460Z,36.00
2019-03-17T15:22:00.687Z,35.60
2019-03-17T15:24:34.995Z,35.70
2019-03-17T15:27:08.476Z,36.10
2019-03-17T15:29:43.103Z,39.30
2019-03-17T15:32:16.482Z,42.20
2019-03-17T15:34:51.083Z,43.90
2019-03-17T15:37:24.361Z,45.40
2019-03-17T15:39:59.151Z,46.20
2019-03-17T15:42:32.483Z,46.10
2019-03-17T15:45:09.653Z,47.20
2019-03-17T15:47:44.040Z,47.10
2019-03-17T15:50:22.535Z,44.20
2019-03-17T15:52:55.818Z,43.70
2019-03-17T15:55:29.180Z,42.60
2019-03-17T15:58:03.709Z,42.00
2019-03-17T16:00:37.079Z,43.80
2019-03-17T16:03:10.419Z,44.20
2019-03-17T16:05:45.674Z,43.20
2019-03-17T16:08:19.225Z,42.50
2019-03-17T16:10:52.556Z,44.20
2019-03-17T16:13:27.357Z,42.90
2019-03-17T16:16:00.753Z,44.60
2019-03-17T16:18:34.110Z,45.20
2019-03-17T16:21:09.057Z,46.80
2019-03-17T16:23:42.439Z,46.80
2019-03-17T16:26:15.856Z,47.40
2019-03-17T16:28:49.208Z,48.40
2019-03-17T16:31:22.534Z,46.90
2019-03-17T16:33:56.824Z,48.40
2019-03-17T16:36:30.210Z,48.30
2019-03-17T16:39:04.275Z,48.00
2019-03-17T16:41:43.270Z,49.90
2019-03-17T16:44:12.551Z,48.30
2019-03-17T16:46:45.802Z,50.20
2019-03-17T16:49:19.004Z,49.30
2019-03-17T16:51:52.324Z,51.80
2019-03-17T16:54:25.668Z,53.10
2019-03-17T16:56:59.060Z,52.30
2019-03-17T16:59:32.497Z,53.30
2019-03-17T17:02:05.869Z,56.20
2019-03-17T17:04:39.243Z,57.60
2019-03-17T17:07:12.556Z,55.10
2019-03-17T17:09:45.803Z,58.00
2019-03-17T17:12:19.114Z,59.20
2019-03-17T17:14:52.467Z,58.50
2019-03-17T17:17:25.789Z,60.10
2019-03-17T17:19:59.167Z,67.60
2019-03-17T17:22:32.604Z,75.90
2019-03-17T17:25:08.910Z,80.10
2019-03-17T17:27:42.264Z,85.00
2019-03-17T17:30:20.249Z,78.70
2019-03-17T17:32:53.604Z,77.50
2019-03-17T17:35:28.029Z,77.90
2019-03-17T17:38:01.486Z,73.70
2019-03-17T17:40:34.810Z,75.70
2019-03-17T17:43:08.072Z,77.00
2019-03-17T17:45:41.359Z,74.00
2019-03-17T17:48:14.907Z,73.90
2019-03-17T17:50:48.271Z,69.90
2019-03-17T17:53:21.612Z,71.50
2019-03-17T17:55:54.994Z,66.90
2019-03-17T17:58:28.467Z,74.00
2019-03-17T18:01:01.829Z,72.70
2019-03-17T18:03:35.244Z,65.60
2019-03-17T18:06:10.074Z,70.70
2019-03-17T18:08:43.499Z,71.70
2019-03-17T18:11:16.894Z,72.80
2019-03-17T18:13:50.307Z,72.50
2019-03-17T18:16:23.703Z,73.80
2019-03-17T18:18:57.033Z,71.40
2019-03-17T18:21:30.356Z,77.20
2019-03-17T18:24:08.133Z,83.50
2019-03-17T18:26:41.536Z,87.20
2019-03-17T18:29:14.879Z,91.10
2019-03-17T18:31:48.258Z,91.50
2019-03-17T18:34:21.580Z,91.70
2019-03-17T18:36:54.925Z,92.10
2019-03-17T18:39:28.375Z,92.60
2019-03-17T18:42:01.785Z,90.70
2019-03-17T18:44:35.230Z,91.80
2019-03-17T18:47:08.622Z,92.50
2019-03-17T18:49:41.970Z,94.00
2019-03-17T18:52:15.377Z,94.50
2019-03-17T18:54:49.219Z,95.10
2019-03-17T18:57:24.823Z,95.50
2019-03-17T19:00:04.428Z,95.70
2019-03-17T19:02:37.762Z,96.40
2019-03-17T19:05:19.588Z,97.10
2019-03-17T19:07:51.995Z,96.80
2019-03-17T19:10:25.315Z,97.10
2019-03-17T19:12:59.874Z,96.90
2019-03-17T19:15:33.323Z,97.10
2019-03-17T19:18:06.694Z,97.30
2019-03-17T19:20:40.112Z,97.90
2019-03-17T19:23:16.241Z,98.10
2019-03-17T19:25:49.632Z,98.00
2019-03-17T19:28:23.185Z,97.20
2019-03-17T19:30:57.632Z,97.80
2019-03-17T19:33:31.033Z,97.10
2019-03-17T19:36:04.581Z,96.80
2019-03-17T19:38:38.045Z,96.90
2019-03-17T19:41:11.368Z,95.90
2019-03-17T19:43:47.501Z,96.40
2019-03-17T19:46:20.913Z,96.00
2019-03-17T19:48:54.331Z,96.20
2019-03-17T19:51:27.670Z,96.50
2019-03-17T19:54:02.470Z,95.90
2019-03-17T19:56:35.921Z,95.80
2019-03-17T19:59:11.635Z,96.60
2019-03-17T20:01:46.804Z,96.60
2019-03-17T20:04:30.010Z,95.30
2019-03-17T20:06:56.308Z,94.80
2019-03-17T20:09:29.698Z,94.20
2019-03-17T20:12:03.107Z,92.90
2019-03-17T20:14:37.930Z,92.90
2019-03-17T20:17:11.315Z,93.60
2019-03-17T20:19:44.691Z,92.90
2019-03-17T20:22:18.013Z,92.70
2019-03-17T20:24:51.420Z,90.60
2019-03-17T20:27:30.691Z,91.60
2019-03-17T20:30:02.769Z,91.70
2019-03-17T20:32:37.157Z,91.60
2019-03-17T20:35:13.554Z,90.80
2019-03-17T20:37:48.125Z,90.90
2019-03-17T20:40:21.553Z,91.60
2019-03-17T20:42:54.866Z,91.50
2019-03-17T20:45:28.449Z,91.00
2019-03-17T20:48:01.933Z,91.80
2019-03-17T20:50:35.283Z,91.50
2019-03-17T20:53:08.676Z,92.10
2019-03-17T20:55:42.213Z,91.70
2019-03-17T20:58:15.613Z,91.60
2019-03-17T21:00:49.575Z,92.70
2019-03-17T21:03:22.945Z,93.40
2019-03-17T21:05:56.811Z,93.50
2019-03-17T21:08:30.223Z,94.20
2019-03-17T21:11:03.615Z,94.40
2019-03-17T21:13:46.680Z,94.40
2019-03-17T21:16:13.191Z,94.50
2019-03-17T21:18:47.484Z,94.30
2019-03-17T21:21:22.341Z,95.00
2019-03-17T21:23:55.787Z,95.10
2019-03-17T21:26:32.156Z,94.80
2019-03-17T21:29:05.576Z,95.30
2019-03-17T21:31:38.953Z,95.30
2019-03-17T21:34:15.154Z,96.10
2019-03-17T21:36:52.176Z,96.90
2019-03-17T21:39:25.603Z,96.80
2019-03-17T21:41:59.333Z,97.10
2019-03-17T21:44:32.726Z,97.50
2019-03-17T21:47:06.184Z,97.80
2019-03-17T21:49:41.093Z,98.10
2019-03-17T21:52:16.335Z,98.10
2019-03-17T21:54:55.743Z,98.50
2019-03-17T21:57:34.043Z,98.80
2019-03-17T22:00:14.153Z,98.80
2019-03-17T22:02:47.567Z,98.90
2019-03-17T22:05:20.991Z,98.80
2019-03-17T22:08:00.473Z,99.40
2019-03-17T22:10:39.937Z,99.30
2019-03-17T22:13:14.463Z,99.60
2019-03-17T22:15:50.845Z,99.50
2019-03-17T22:18:25.033Z,99.90
2019-03-17T22:20:58.462Z,99.90
2019-03-17T22:23:31.835Z,99.90
2019-03-17T22:26:06.052Z,99.90
2019-03-17T22:28:39.297Z,99.90
2019-03-17T22:31:14.176Z,99.90
2019-03-17T22:33:47.536Z,99.90
2019-03-17T22:36:28.112Z,99.90
2019-03-17T22:39:01.565Z,99.90
2019-03-17T22:41:34.944Z,99.90
2019-03-17T22:44:09.510Z,99.90
2019-03-17T22:50:06.535Z,99.90
2019-03-17T22:56:40.873Z,98.10
2019-03-17T23:02:03.495Z,94.70
2019-03-17T23:04:40.367Z,94.30
2019-03-17T23:07:18.630Z,93.80
2019-03-17T23:09:52.053Z,94.20
2019-03-17T23:12:31.854Z,94.20
2019-03-17T23:15:07.363Z,94.40
2019-03-17T23:17:40.569Z,94.20
2019-03-17T23:20:17.573Z,93.70
2019-03-17T23:29:28.437Z,97.00
2019-03-17T23:32:03.950Z,98.30
2019-03-17T23:34:37.326Z,99.90
2019-03-17T23:37:11.883Z,99.90
2019-03-17T23:39:53.474Z,99.90
2019-03-17T23:42:28.385Z,99.90
2019-03-17T23:45:01.605Z,99.90
2019-03-17T23:47:35.095Z,99.90
2019-03-17T23:50:15.947Z,99.90
2019-03-17T23:52:49.289Z,99.90
2019-03-17T23:55:24.148Z,99.90
2019-03-17T23:57:57.423Z,99.90
